sensor_id;sensor_type;location;lat;lon;timestamp;pressure;altitude;pressure_sealevel;temperature;humidity
69630;BME280;56857;52.212;5.496;2022-11-20T05:25:07;101268.72;;;-2.82;79.44
69630;BME280;56857;52.212;5.496;2022-11-20T05:27:53;101270.41;;;-2.81;79.64
69630;BME280;56857;52.212;5.496;2022-11-20T05:30:38;101273.84;;;-2.80;79.40
69630;BME280;56857;52.212;5.496;2022-11-20T05:33:23;101277.69;;;-2.89;78.96
69630;BME280;56857;52.212;5.496;2022-11-20T05:36:09;101268.59;;;-2.97;79.45
69630;BME280;56857;52.212;5.496;2022-11-20T05:38:55;101248.69;;;-2.97;79.51
69630;BME280;56857;52.212;5.496;2022-11-20T05:41:40;101236.50;;;-2.95;79.72
69630;BME280;56857;52.212;5.496;2022-11-20T05:44:25;101241.59;;;-2.93;79.59
69630;BME280;56857;52.212;5.496;2022-11-20T05:47:10;101246.63;;;-2.90;79.72
69630;BME280;56857;52.212;5.496;2022-11-20T05:49:56;101246.63;;;-2.90;79.63
69630;BME280;56857;52.212;5.496;2022-11-20T05:52:41;101253.81;;;-2.95;79.29
69630;BME280;56857;52.212;5.496;2022-11-20T05:55:27;101251.22;;;-2.95;79.49
69630;BME280;56857;52.212;5.496;2022-11-20T05:58:12;101263.25;;;-2.94;79.54
69630;BME280;56857;52.212;5.496;2022-11-20T06:01:12;101278.00;;;-2.95;79.38
69630;BME280;56857;52.212;5.496;2022-11-20T06:03:57;101282.41;;;-2.97;79.10
69630;BME280;56857;52.212;5.496;2022-11-20T06:06:42;101286.75;;;-2.97;79.15
69630;BME280;56857;52.212;5.496;2022-11-20T06:09:28;101280.16;;;-3.05;79.12
69630;BME280;56857;52.212;5.496;2022-11-20T06:12:14;101286.34;;;-3.07;79.59
69630;BME280;56857;52.212;5.496;2022-11-20T06:14:59;101285.41;;;-3.06;79.22
69630;BME280;56857;52.212;5.496;2022-11-20T06:17:44;101290.53;;;-3.05;79.41
69630;BME280;56857;52.212;5.496;2022-11-20T06:20:30;101285.22;;;-3.01;79.67
69630;BME280;56857;52.212;5.496;2022-11-20T06:23:15;101279.34;;;-3.05;79.52
69630;BME280;56857;52.212;5.496;2022-11-20T06:26:05;101289.16;;;-3.12;79.14
69630;BME280;56857;52.212;5.496;2022-11-20T06:28:52;101287.41;;;-3.11;79.32
69630;BME280;56857;52.212;5.496;2022-11-20T06:31:37;101293.34;;;-3.09;79.44
69630;BME280;56857;52.212;5.496;2022-11-20T06:34:22;101286.47;;;-3.10;79.34
69630;BME280;56857;52.212;5.496;2022-11-20T06:37:08;101287.31;;;-3.10;79.34
69630;BME280;56857;52.212;5.496;2022-11-20T06:39:53;101279.63;;;-3.11;79.56
69630;BME280;56857;52.212;5.496;2022-11-20T06:42:38;101284.25;;;-3.18;79.26
69630;BME280;56857;52.212;5.496;2022-11-20T06:45:23;101290.47;;;-3.22;79.38
69630;BME280;56857;52.212;5.496;2022-11-20T06:48:09;101281.25;;;-3.28;79.37
69630;BME280;56857;52.212;5.496;2022-11-20T06:50:55;101279.69;;;-3.32;79.45
69630;BME280;56857;52.212;5.496;2022-11-20T06:53:40;101283.88;;;-3.29;79.83
69630;BME280;56857;52.212;5.496;2022-11-20T06:56:26;101282.22;;;-3.30;79.39
69630;BME280;56857;52.212;5.496;2022-11-20T06:59:11;101279.69;;;-3.32;79.56
69630;BME280;56857;52.212;5.496;2022-11-20T07:01:57;101269.31;;;-3.32;79.19
69630;BME280;56857;52.212;5.496;2022-11-20T07:04:42;101269.31;;;-3.32;79.25
69630;BME280;56857;52.212;5.496;2022-11-20T07:07:28;101275.69;;;-3.39;79.37
69630;BME280;56857;52.212;5.496;2022-11-20T07:10:13;101277.91;;;-3.50;79.10
69630;BME280;56857;52.212;5.496;2022-11-20T07:12:58;101277.59;;;-3.63;79.38
69630;BME280;56857;52.212;5.496;2022-11-20T07:15:44;101277.03;;;-3.69;79.55
69630;BME280;56857;52.212;5.496;2022-11-20T07:18:29;101272.66;;;-3.67;79.98
69630;BME280;56857;52.212;5.496;2022-11-20T07:21:14;101276.59;;;-3.59;80.05
69630;BME280;56857;52.212;5.496;2022-11-20T07:23:59;101269.50;;;-3.55;79.97
69630;BME280;56857;52.212;5.496;2022-11-20T07:26:48;101271.84;;;-3.49;79.92
69630;BME280;56857;52.212;5.496;2022-11-20T07:29:33;101268.19;;;-3.45;80.09
69630;BME280;56857;52.212;5.496;2022-11-20T07:32:19;101264.63;;;-3.42;80.02
69630;BME280;56857;52.212;5.496;2022-11-20T07:35:04;101247.25;;;-3.40;80.13
69630;BME280;56857;52.212;5.496;2022-11-20T07:37:50;101239.41;;;-3.39;80.28
69630;BME280;56857;52.212;5.496;2022-11-20T07:40:35;101238.41;;;-3.36;80.07
69630;BME280;56857;52.212;5.496;2022-11-20T07:43:21;101241.84;;;-3.36;80.36
69630;BME280;56857;52.212;5.496;2022-11-20T07:46:06;101241.75;;;-3.34;80.19
69630;BME280;56857;52.212;5.496;2022-11-20T07:48:52;101239.91;;;-3.31;80.37
69630;BME280;56857;52.212;5.496;2022-11-20T07:51:37;101242.06;;;-3.21;80.62
69630;BME280;56857;52.212;5.496;2022-11-20T07:54:23;101243.31;;;-3.11;80.86
69630;BME280;56857;52.212;5.496;2022-11-20T07:57:08;101246.38;;;-3.03;80.50
69630;BME280;56857;52.212;5.496;2022-11-20T07:59:53;101242.75;;;-2.99;80.70
69630;BME280;56857;52.212;5.496;2022-11-20T08:02:42;101251.13;;;-2.94;80.84
69630;BME280;56857;52.212;5.496;2022-11-20T08:05:27;101254.34;;;-2.89;80.97
69630;BME280;56857;52.212;5.496;2022-11-20T08:08:13;101250.94;;;-2.89;80.93
69630;BME280;56857;52.212;5.496;2022-11-20T08:10:58;101259.69;;;-2.92;80.56
69630;BME280;56857;52.212;5.496;2022-11-20T08:13:43;101258.00;;;-2.93;80.91
69630;BME280;56857;52.212;5.496;2022-11-20T08:16:29;101259.06;;;-2.97;81.21
69630;BME280;56857;52.212;5.496;2022-11-20T08:19:18;101256.00;;;-3.05;81.09
69630;BME280;56857;52.212;5.496;2022-11-20T08:22:03;101246.06;;;-3.14;81.05
69630;BME280;56857;52.212;5.496;2022-11-20T08:24:49;101251.38;;;-3.17;81.46
69630;BME280;56857;52.212;5.496;2022-11-20T08:27:34;101243.59;;;-3.17;81.76
69630;BME280;56857;52.212;5.496;2022-11-20T08:30:19;101246.75;;;-3.11;82.09
69630;BME280;56857;52.212;5.496;2022-11-20T08:33:07;101233.53;;;-3.06;82.61
69630;BME280;56857;52.212;5.496;2022-11-20T08:35:52;101227.38;;;-3.04;82.91
69630;BME280;56857;52.212;5.496;2022-11-20T08:38:39;101226.25;;;-2.98;83.26
69630;BME280;56857;52.212;5.496;2022-11-20T08:41:24;101224.91;;;-2.88;83.63
69630;BME280;56857;52.212;5.496;2022-11-20T08:44:09;101227.97;;;-2.80;83.80
69630;BME280;56857;52.212;5.496;2022-11-20T08:46:55;101223.19;;;-2.70;83.67
69630;BME280;56857;52.212;5.496;2022-11-20T08:49:40;101230.56;;;-2.62;83.90
69630;BME280;56857;52.212;5.496;2022-11-20T08:52:26;101237.16;;;-2.55;83.57
69630;BME280;56857;52.212;5.496;2022-11-20T08:55:11;101229.06;;;-2.49;84.00
69630;BME280;56857;52.212;5.496;2022-11-20T08:57:56;101221.97;;;-2.45;83.76
69630;BME280;56857;52.212;5.496;2022-11-20T09:00:42;101222.03;;;-2.47;83.92
69630;BME280;56857;52.212;5.496;2022-11-20T09:03:27;101221.13;;;-2.46;84.03
69630;BME280;56857;52.212;5.496;2022-11-20T09:06:13;101222.81;;;-2.45;84.18
69630;BME280;56857;52.212;5.496;2022-11-20T09:08:58;101220.75;;;-2.38;84.82
69630;BME280;56857;52.212;5.496;2022-11-20T09:11:44;101217.75;;;-2.30;84.76
69630;BME280;56857;52.212;5.496;2022-11-20T09:14:29;101203.63;;;-2.25;84.71
69630;BME280;56857;52.212;5.496;2022-11-20T09:17:14;101199.09;;;-2.21;84.94
69630;BME280;56857;52.212;5.496;2022-11-20T09:20:00;101194.53;;;-2.16;84.87
69630;BME280;56857;52.212;5.496;2022-11-20T09:22:45;101199.41;;;-2.10;84.91
69630;BME280;56857;52.212;5.496;2022-11-20T09:25:30;101204.34;;;-2.05;85.50
69630;BME280;56857;52.212;5.496;2022-11-20T09:28:16;101187.53;;;-1.98;85.41
69630;BME280;56857;52.212;5.496;2022-11-20T09:31:05;101191.66;;;-1.94;85.24
69630;BME280;56857;52.212;5.496;2022-11-20T09:33:50;101186.19;;;-1.90;85.73
69630;BME280;56857;52.212;5.496;2022-11-20T09:36:35;101196.38;;;-1.85;86.21
69630;BME280;56857;52.212;5.496;2022-11-20T09:39:21;101185.81;;;-1.82;86.39
69630;BME280;56857;52.212;5.496;2022-11-20T09:45:24;101171.50;;;-1.73;86.66
69630;BME280;56857;52.212;5.496;2022-11-20T09:51:18;101166.63;;;-1.64;86.83
69630;BME280;56857;52.212;5.496;2022-11-20T09:54:15;101165.44;;;-1.58;86.60
69630;BME280;56857;52.212;5.496;2022-11-20T09:57:12;101153.22;;;-1.56;86.82
69630;BME280;56857;52.212;5.496;2022-11-20T10:00:01;101157.06;;;-1.47;86.83
69630;BME280;56857;52.212;5.496;2022-11-20T10:05:51;101162.16;;;-1.30;86.69
69630;BME280;56857;52.212;5.496;2022-11-20T10:08:55;101155.72;;;-1.23;86.92
69630;BME280;56857;52.212;5.496;2022-11-20T10:12:11;101152.84;;;-1.18;87.40
69630;BME280;56857;52.212;5.496;2022-11-20T10:18:09;101156.25;;;-1.02;87.39
69630;BME280;56857;52.212;5.496;2022-11-20T10:30:20;101117.88;;;-0.68;87.83
69630;BME280;56857;52.212;5.496;2022-11-20T10:33:19;101129.53;;;-0.59;87.98
69630;BME280;56857;52.212;5.496;2022-11-20T10:36:41;101126.38;;;-0.50;88.31
69630;BME280;56857;52.212;5.496;2022-11-20T10:39:44;101113.84;;;-0.43;87.66
69630;BME280;56857;52.212;5.496;2022-11-20T10:42:51;101106.47;;;-0.37;87.54
69630;BME280;56857;52.212;5.496;2022-11-20T10:48:36;101105.38;;;-0.18;87.97
69630;BME280;56857;52.212;5.496;2022-11-20T10:51:36;101101.34;;;-0.10;87.75
69630;BME280;56857;52.212;5.496;2022-11-20T10:58:04;101087.38;;;0.06;87.92
69630;BME280;56857;52.212;5.496;2022-11-20T11:01:19;101072.28;;;0.11;88.00
69630;BME280;56857;52.212;5.496;2022-11-20T11:04:20;101058.13;;;0.15;87.93
69630;BME280;56857;52.212;5.496;2022-11-20T11:07:44;101053.34;;;0.21;88.17
69630;BME280;56857;52.212;5.496;2022-11-20T11:10:37;101058.28;;;0.26;87.99
69630;BME280;56857;52.212;5.496;2022-11-20T11:13:27;101060.50;;;0.32;88.08
69630;BME280;56857;52.212;5.496;2022-11-20T11:16:23;101053.41;;;0.34;87.96
69630;BME280;56857;52.212;5.496;2022-11-20T11:19:13;101053.00;;;0.40;88.51
69630;BME280;56857;52.212;5.496;2022-11-20T11:21:59;101038.88;;;0.44;88.78
69630;BME280;56857;52.212;5.496;2022-11-20T11:24:52;101040.31;;;0.49;89.02
69630;BME280;56857;52.212;5.496;2022-11-20T11:27:48;101041.78;;;0.53;89.05
69630;BME280;56857;52.212;5.496;2022-11-20T11:30:42;101026.13;;;0.53;89.29
69630;BME280;56857;52.212;5.496;2022-11-20T11:33:30;101019.69;;;0.58;89.68
69630;BME280;56857;52.212;5.496;2022-11-20T11:36:22;101008.22;;;0.61;89.98
69630;BME280;56857;52.212;5.496;2022-11-20T11:39:19;101001.03;;;0.64;90.18
69630;BME280;56857;52.212;5.496;2022-11-20T11:42:05;101007.00;;;0.66;90.56
69630;BME280;56857;52.212;5.496;2022-11-20T11:44:51;100994.56;;;0.70;90.38
69630;BME280;56857;52.212;5.496;2022-11-20T11:47:47;100996.78;;;0.76;90.35
69630;BME280;56857;52.212;5.496;2022-11-20T11:50:32;100990.94;;;0.85;90.72
69630;BME280;56857;52.212;5.496;2022-11-20T11:53:20;100990.00;;;0.86;91.30
69630;BME280;56857;52.212;5.496;2022-11-20T11:56:09;100975.16;;;0.87;90.92
69630;BME280;56857;52.212;5.496;2022-11-20T11:58:57;100969.41;;;0.95;90.99
69630;BME280;56857;52.212;5.496;2022-11-20T12:01:57;100962.13;;;1.00;91.04
69630;BME280;56857;52.212;5.496;2022-11-20T12:04:50;100961.63;;;1.07;91.07
69630;BME280;56857;52.212;5.496;2022-11-20T12:07:41;100961.06;;;1.15;91.19
69630;BME280;56857;52.212;5.496;2022-11-20T12:13:42;100953.56;;;1.23;91.37
69630;BME280;56857;52.212;5.496;2022-11-20T12:16:36;100944.56;;;1.27;91.48
69630;BME280;56857;52.212;5.496;2022-11-20T12:19:21;100935.91;;;1.27;91.68
69630;BME280;56857;52.212;5.496;2022-11-20T12:25:32;100925.44;;;1.27;91.97
69630;BME280;56857;52.212;5.496;2022-11-20T12:28:37;100923.47;;;1.30;92.02
69630;BME280;56857;52.212;5.496;2022-11-20T12:31:36;100931.91;;;1.34;92.07
69630;BME280;56857;52.212;5.496;2022-11-20T12:34:46;100933.47;;;1.36;92.59
69630;BME280;56857;52.212;5.496;2022-11-20T12:37:45;100922.06;;;1.37;92.78
69630;BME280;56857;52.212;5.496;2022-11-20T12:43:26;100916.53;;;1.42;93.22
69630;BME280;56857;52.212;5.496;2022-11-20T12:46:22;100908.81;;;1.41;93.37
69630;BME280;56857;52.212;5.496;2022-11-20T12:49:38;100902.53;;;1.43;93.77
69630;BME280;56857;52.212;5.496;2022-11-20T12:55:16;100905.66;;;1.48;93.74
69630;BME280;56857;52.212;5.496;2022-11-20T13:01:05;100876.69;;;1.51;94.08
69630;BME280;56857;52.212;5.496;2022-11-20T13:03:57;100866.97;;;1.53;94.14
69630;BME280;56857;52.212;5.496;2022-11-20T13:06:46;100858.69;;;1.59;94.29
69630;BME280;56857;52.212;5.496;2022-11-20T13:09:34;100847.69;;;1.67;94.76
69630;BME280;56857;52.212;5.496;2022-11-20T13:12:33;100836.53;;;1.76;94.85
69630;BME280;56857;52.212;5.496;2022-11-20T13:19:11;100826.09;;;1.76;95.15
69630;BME280;56857;52.212;5.496;2022-11-20T13:21:57;100826.00;;;1.78;95.05
69630;BME280;56857;52.212;5.496;2022-11-20T13:24:50;100825.84;;;1.79;95.21
69630;BME280;56857;52.212;5.496;2022-11-20T13:27:47;100811.03;;;1.80;95.37
69630;BME280;56857;52.212;5.496;2022-11-20T13:30:33;100802.56;;;1.76;95.54
69630;BME280;56857;52.212;5.496;2022-11-20T13:33:36;100794.13;;;1.73;95.86
69630;BME280;56857;52.212;5.496;2022-11-20T13:36:25;100794.34;;;1.70;96.09
69630;BME280;56857;52.212;5.496;2022-11-20T13:39:11;100801.59;;;1.66;96.24
69630;BME280;56857;52.212;5.496;2022-11-20T13:42:02;100795.16;;;1.59;96.88
69630;BME280;56857;52.212;5.496;2022-11-20T13:44:54;100788.13;;;1.59;96.58
69630;BME280;56857;52.212;5.496;2022-11-20T13:47:47;100785.53;;;1.59;96.62
69630;BME280;56857;52.212;5.496;2022-11-20T13:53:26;100788.03;;;1.61;97.02
69630;BME280;56857;52.212;5.496;2022-11-20T13:56:48;100785.75;;;1.56;97.56
69630;BME280;56857;52.212;5.496;2022-11-20T13:59:48;100775.44;;;1.55;98.13
69630;BME280;56857;52.212;5.496;2022-11-20T14:02:38;100761.72;;;1.51;98.38
69630;BME280;56857;52.212;5.496;2022-11-20T14:05:24;100753.06;;;1.51;98.35
69630;BME280;56857;52.212;5.496;2022-11-20T14:08:16;100748.56;;;1.53;98.12
69630;BME280;56857;52.212;5.496;2022-11-20T14:11:14;100743.22;;;1.54;98.52
69630;BME280;56857;52.212;5.496;2022-11-20T14:16:45;100755.59;;;1.52;98.90
69630;BME280;56857;52.212;5.496;2022-11-20T14:19:31;100759.25;;;1.50;99.69
69630;BME280;56857;52.212;5.496;2022-11-20T14:22:25;100758.50;;;1.48;99.82
69630;BME280;56857;52.212;5.496;2022-11-20T14:28:00;100745.13;;;1.52;99.74
69630;BME280;56857;52.212;5.496;2022-11-20T14:30:49;100724.94;;;1.54;99.53
69630;BME280;56857;52.212;5.496;2022-11-20T14:33:35;100721.16;;;1.58;99.78
69630;BME280;56857;52.212;5.496;2022-11-20T14:36:23;100707.97;;;1.60;99.71
69630;BME280;56857;52.212;5.496;2022-11-20T14:39:12;100697.28;;;1.63;99.65
69630;BME280;56857;52.212;5.496;2022-11-20T14:42:15;100681.38;;;1.66;99.87
69630;BME280;56857;52.212;5.496;2022-11-20T14:45:01;100695.06;;;1.70;99.72
69630;BME280;56857;52.212;5.496;2022-11-20T14:47:48;100703.97;;;1.67;99.81
69630;BME280;56857;52.212;5.496;2022-11-20T14:50:33;100699.56;;;1.68;99.83
69630;BME280;56857;52.212;5.496;2022-11-20T14:53:23;100690.78;;;1.69;100.00
69630;BME280;56857;52.212;5.496;2022-11-20T14:56:09;100680.19;;;1.70;99.90
69630;BME280;56857;52.212;5.496;2022-11-20T14:58:56;100675.69;;;1.72;100.00
69630;BME280;56857;52.212;5.496;2022-11-20T15:01:54;100668.69;;;1.73;100.00
69630;BME280;56857;52.212;5.496;2022-11-20T15:04:56;100651.34;;;1.72;100.00
69630;BME280;56857;52.212;5.496;2022-11-20T15:07:50;100652.91;;;1.74;100.00
69630;BME280;56857;52.212;5.496;2022-11-20T15:10:35;100660.75;;;1.74;100.00
69630;BME280;56857;52.212;5.496;2022-11-20T15:13:38;100651.94;;;1.75;100.00
69630;BME280;56857;52.212;5.496;2022-11-20T15:16:24;100650.28;;;1.74;100.00
69630;BME280;56857;52.212;5.496;2022-11-20T15:19:17;100635.44;;;1.75;100.00
69630;BME280;56857;52.212;5.496;2022-11-20T15:22:04;100640.66;;;1.75;100.00
69630;BME280;56857;52.212;5.496;2022-11-20T15:24:49;100638.88;;;1.75;100.00
69630;BME280;56857;52.212;5.496;2022-11-20T15:27:35;100631.75;;;1.77;100.00
69630;BME280;56857;52.212;5.496;2022-11-20T15:30:20;100625.72;;;1.77;100.00
69630;BME280;56857;52.212;5.496;2022-11-20T15:33:08;100623.34;;;1.74;100.00
69630;BME280;56857;52.212;5.496;2022-11-20T15:35:53;100624.84;;;1.76;100.00
69630;BME280;56857;52.212;5.496;2022-11-20T15:38:39;100620.59;;;1.75;100.00
69630;BME280;56857;52.212;5.496;2022-11-20T15:41:24;100616.31;;;1.74;100.00
69630;BME280;56857;52.212;5.496;2022-11-20T15:44:11;100619.63;;;1.76;100.00
69630;BME280;56857;52.212;5.496;2022-11-20T15:46:56;100609.06;;;1.78;100.00
69630;BME280;56857;52.212;5.496;2022-11-20T15:49:41;100611.69;;;1.78;100.00
69630;BME280;56857;52.212;5.496;2022-11-20T15:52:27;100606.31;;;1.79;100.00
69630;BME280;56857;52.212;5.496;2022-11-20T15:55:12;100607.88;;;1.82;100.00
69630;BME280;56857;52.212;5.496;2022-11-20T15:57:57;100599.94;;;1.83;100.00
69630;BME280;56857;52.212;5.496;2022-11-20T16:00:43;100590.31;;;1.84;100.00
69630;BME280;56857;52.212;5.496;2022-11-20T16:03:29;100584.34;;;1.82;100.00
69630;BME280;56857;52.212;5.496;2022-11-20T16:06:15;100580.09;;;1.81;100.00
69630;BME280;56857;52.212;5.496;2022-11-20T16:09:00;100572.25;;;1.81;100.00
69630;BME280;56857;52.212;5.496;2022-11-20T16:11:45;100567.97;;;1.80;100.00
69630;BME280;56857;52.212;5.496;2022-11-20T16:14:31;100566.88;;;1.82;100.00
69630;BME280;56857;52.212;5.496;2022-11-20T16:17:16;100554.69;;;1.83;100.00
69630;BME280;56857;52.212;5.496;2022-11-20T16:20:01;100550.28;;;1.83;100.00
69630;BME280;56857;52.212;5.496;2022-11-20T16:22:47;100550.03;;;1.87;100.00
69630;BME280;56857;52.212;5.496;2022-11-20T16:25:32;100541.47;;;1.84;100.00
69630;BME280;56857;52.212;5.496;2022-11-20T16:28:18;100537.91;;;1.85;100.00
69630;BME280;56857;52.212;5.496;2022-11-20T16:31:14;100539.81;;;1.83;100.00
69630;BME280;56857;52.212;5.496;2022-11-20T16:34:03;100528.41;;;1.84;100.00
69630;BME280;56857;52.212;5.496;2022-11-20T16:36:49;100525.78;;;1.84;100.00
69630;BME280;56857;52.212;5.496;2022-11-20T16:39:34;100518.78;;;1.85;100.00
69630;BME280;56857;52.212;5.496;2022-11-20T16:42:21;100526.75;;;1.83;100.00
69630;BME280;56857;52.212;5.496;2022-11-20T16:45:06;100518.09;;;1.83;100.00
69630;BME280;56857;52.212;5.496;2022-11-20T16:47:54;100511.19;;;1.82;100.00
69630;BME280;56857;52.212;5.496;2022-11-20T16:51:09;100505.94;;;1.82;100.00
69630;BME280;56857;52.212;5.496;2022-11-20T16:53:55;100502.50;;;1.81;100.00
69630;BME280;56857;52.212;5.496;2022-11-20T16:56:41;100503.34;;;1.82;100.00
69630;BME280;56857;52.212;5.496;2022-11-20T16:59:26;100488.38;;;1.84;100.00
69630;BME280;56857;52.212;5.496;2022-11-20T17:02:11;100483.97;;;1.84;100.00
69630;BME280;56857;52.212;5.496;2022-11-20T17:04:57;100482.31;;;1.83;100.00
69630;BME280;56857;52.212;5.496;2022-11-20T17:07:42;100482.56;;;1.80;100.00
69630;BME280;56857;52.212;5.496;2022-11-20T17:10:27;100481.59;;;1.81;100.00
69630;BME280;56857;52.212;5.496;2022-11-20T17:13:12;100481.97;;;1.77;100.00
69630;BME280;56857;52.212;5.496;2022-11-20T17:16:06;100479.47;;;1.75;100.00
69630;BME280;56857;52.212;5.496;2022-11-20T17:18:54;100482.81;;;1.77;100.00
69630;BME280;56857;52.212;5.496;2022-11-20T17:21:40;100481.59;;;1.81;100.00
69630;BME280;56857;52.212;5.496;2022-11-20T17:24:25;100467.72;;;1.81;100.00
69630;BME280;56857;52.212;5.496;2022-11-20T17:27:11;100467.81;;;1.79;100.00
69630;BME280;56857;52.212;5.496;2022-11-20T17:29:56;100466.06;;;1.80;100.00
69630;BME280;56857;52.212;5.496;2022-11-20T17:32:42;100471.97;;;1.82;100.00
69630;BME280;56857;52.212;5.496;2022-11-20T17:35:27;100468.28;;;1.84;100.00
69630;BME280;56857;52.212;5.496;2022-11-20T17:38:13;100463.06;;;1.84;100.00
69630;BME280;56857;52.212;5.496;2022-11-20T17:41:39;100455.22;;;1.84;100.00
69630;BME280;56857;52.212;5.496;2022-11-20T17:44:17;100446.56;;;1.84;100.00
69630;BME280;56857;52.212;5.496;2022-11-20T17:47:03;100454.41;;;1.84;100.00
69630;BME280;56857;52.212;5.496;2022-11-20T17:49:48;100457.59;;;1.88;100.00
69630;BME280;56857;52.212;5.496;2022-11-20T17:52:33;100456.53;;;1.90;100.00
69630;BME280;56857;52.212;5.496;2022-11-20T17:55:19;100471.13;;;1.93;100.00
69630;BME280;56857;52.212;5.496;2022-11-20T17:58:04;100458.19;;;1.91;100.00
69630;BME280;56857;52.212;5.496;2022-11-20T18:00:49;100459.81;;;1.92;100.00
69630;BME280;56857;52.212;5.496;2022-11-20T18:03:35;100456.97;;;1.95;100.00
69630;BME280;56857;52.212;5.496;2022-11-20T18:06:22;100461.50;;;1.93;100.00
69630;BME280;56857;52.212;5.496;2022-11-20T18:09:08;100460.44;;;1.96;100.00
69630;BME280;56857;52.212;5.496;2022-11-20T18:11:54;100460.28;;;1.97;100.00
69630;BME280;56857;52.212;5.496;2022-11-20T18:14:39;100463.28;;;1.93;100.00
69630;BME280;56857;52.212;5.496;2022-11-20T18:17:24;100465.78;;;1.94;100.00
69630;BME280;56857;52.212;5.496;2022-11-20T18:20:10;100468.28;;;1.96;100.00
69630;BME280;56857;52.212;5.496;2022-11-20T18:22:56;100475.75;;;2.00;100.00
69630;BME280;56857;52.212;5.496;2022-11-20T18:25:41;100473.00;;;2.02;100.00
69630;BME280;56857;52.212;5.496;2022-11-20T18:28:27;100467.41;;;2.06;100.00
69630;BME280;56857;52.212;5.496;2022-11-20T18:31:12;100470.59;;;2.10;100.00
69630;BME280;56857;52.212;5.496;2022-11-20T18:33:58;100466.78;;;2.14;100.00
69630;BME280;56857;52.212;5.496;2022-11-20T18:36:43;100473.28;;;2.20;100.00
69630;BME280;56857;52.212;5.496;2022-11-20T18:39:29;100481.53;;;2.15;100.00
69630;BME280;56857;52.212;5.496;2022-11-20T18:42:15;100479.84;;;2.14;100.00
69630;BME280;56857;52.212;5.496;2022-11-20T18:45:01;100476.97;;;2.17;100.00
69630;BME280;56857;52.212;5.496;2022-11-20T18:47:47;100482.22;;;2.17;100.00
69630;BME280;56857;52.212;5.496;2022-11-20T18:50:32;100483.06;;;2.18;100.00
69630;BME280;56857;52.212;5.496;2022-11-20T18:53:17;100485.94;;;2.15;100.00
69630;BME280;56857;52.212;5.496;2022-11-20T18:56:04;100487.34;;;2.19;100.00
69630;BME280;56857;52.212;5.496;2022-11-20T18:58:49;100482.56;;;2.24;100.00
69630;BME280;56857;52.212;5.496;2022-11-20T19:01:35;100477.91;;;2.27;100.00
69630;BME280;56857;52.212;5.496;2022-11-20T19:04:20;100483.00;;;2.29;100.00
69630;BME280;56857;52.212;5.496;2022-11-20T19:10:03;100487.28;;;2.30;100.00
69630;BME280;56857;52.212;5.496;2022-11-20T19:12:49;100489.66;;;2.33;100.00
69630;BME280;56857;52.212;5.496;2022-11-20T19:15:34;100492.97;;;2.35;100.00
69630;BME280;56857;52.212;5.496;2022-11-20T19:18:19;100497.13;;;2.38;100.00
69630;BME280;56857;52.212;5.496;2022-11-20T19:21:13;100498.94;;;2.37;100.00
69630;BME280;56857;52.212;5.496;2022-11-20T19:24:01;100496.06;;;2.40;100.00
69630;BME280;56857;52.212;5.496;2022-11-20T19:26:46;100491.75;;;2.39;100.00
69630;BME280;56857;52.212;5.496;2022-11-20T19:29:32;100493.56;;;2.39;100.00
69630;BME280;56857;52.212;5.496;2022-11-20T19:32:17;100487.13;;;2.43;100.00
69630;BME280;56857;52.212;5.496;2022-11-20T19:35:02;100493.88;;;2.45;100.00
69630;BME280;56857;52.212;5.496;2022-11-20T19:37:48;100487.13;;;2.43;100.00
69630;BME280;56857;52.212;5.496;2022-11-20T19:40:35;100490.59;;;2.43;100.00
69630;BME280;56857;52.212;5.496;2022-11-20T19:43:20;100489.63;;;2.44;100.00
69630;BME280;56857;52.212;5.496;2022-11-20T19:46:06;100488.06;;;2.42;100.00
69630;BME280;56857;52.212;5.496;2022-11-20T19:48:52;100484.88;;;2.38;100.00
69630;BME280;56857;52.212;5.496;2022-11-20T19:51:42;100472.63;;;2.39;100.00
69630;BME280;56857;52.212;5.496;2022-11-20T19:54:28;100463.63;;;2.31;100.00
69630;BME280;56857;52.212;5.496;2022-11-20T19:57:13;100466.75;;;2.25;100.00
69630;BME280;56857;52.212;5.496;2022-11-20T19:59:58;100464.38;;;2.22;100.00
69630;BME280;56857;52.212;5.496;2022-11-20T20:02:43;100466.41;;;2.19;100.00
69630;BME280;56857;52.212;5.496;2022-11-20T20:05:29;100464.88;;;2.16;100.00
69630;BME280;56857;52.212;5.496;2022-11-20T20:08:14;100466.66;;;2.16;100.00
69630;BME280;56857;52.212;5.496;2022-11-20T20:10:59;100464.16;;;2.14;100.00
69630;BME280;56857;52.212;5.496;2022-11-20T20:13:45;100481.78;;;2.12;100.00
69630;BME280;56857;52.212;5.496;2022-11-20T20:16:31;100485.22;;;2.13;100.00
69630;BME280;56857;52.212;5.496;2022-11-20T20:19:17;100487.44;;;2.17;100.00
69630;BME280;56857;52.212;5.496;2022-11-20T20:22:02;100491.97;;;2.15;100.00
69630;BME280;56857;52.212;5.496;2022-11-20T20:24:47;100499.13;;;2.13;100.00
69630;BME280;56857;52.212;5.496;2022-11-20T20:27:33;100498.88;;;2.16;100.00
69630;BME280;56857;52.212;5.496;2022-11-20T20:30:18;100494.94;;;2.22;100.00
69630;BME280;56857;52.212;5.496;2022-11-20T20:33:04;100502.28;;;2.28;100.00
69630;BME280;56857;52.212;5.496;2022-11-20T20:35:49;100506.06;;;2.35;100.00
69630;BME280;56857;52.212;5.496;2022-11-20T20:38:35;100510.22;;;2.38;100.00
69630;BME280;56857;52.212;5.496;2022-11-20T20:41:22;100505.56;;;2.41;100.00
69630;BME280;56857;52.212;5.496;2022-11-20T20:44:07;100508.75;;;2.45;100.00
69630;BME280;56857;52.212;5.496;2022-11-20T20:46:53;100511.13;;;2.48;100.00
69630;BME280;56857;52.212;5.496;2022-11-20T20:49:41;100510.16;;;2.49;100.00
69630;BME280;56857;52.212;5.496;2022-11-20T20:52:26;100506.72;;;2.48;100.00
69630;BME280;56857;52.212;5.496;2022-11-20T20:55:12;100516.81;;;2.53;100.00
69630;BME280;56857;52.212;5.496;2022-11-20T20:57:58;100518.59;;;2.52;100.00
69630;BME280;56857;52.212;5.496;2022-11-20T21:00:43;100511.59;;;2.53;100.00
69630;BME280;56857;52.212;5.496;2022-11-20T21:03:31;100520.72;;;2.59;100.00
69630;BME280;56857;52.212;5.496;2022-11-20T21:06:16;100520.47;;;2.62;100.00